sensor_id;sensor_type;location;lat;lon;timestamp;pressure;altitude;pressure_sealevel;temperature;humidity
47080;BME280;33067;49.296;14.470;2023-05-10T00:00:44;96537.03;;;13.61;36.09
47080;BME280;33067;49.296;14.470;2023-05-10T00:03:09;96535.41;;;14.21;35.41
47080;BME280;33067;49.296;14.470;2023-05-10T00:05:35;96530.44;;;13.80;35.52
47080;BME280;33067;49.296;14.470;2023-05-10T00:08:00;96524.33;;;14.02;35.73
47080;BME280;33067;49.296;14.470;2023-05-10T00:10:25;96526.77;;;13.90;35.58
47080;BME280;33067;49.296;14.470;2023-05-10T00:12:50;96524.63;;;13.76;35.86
47080;BME280;33067;49.296;14.470;2023-05-10T00:15:16;96522.11;;;13.85;35.68
47080;BME280;33067;49.296;14.470;2023-05-10T00:17:41;96518.26;;;13.34;36.21
47080;BME280;33067;49.296;14.470;2023-05-10T00:20:07;96515.36;;;13.58;35.81
47080;BME280;33067;49.296;14.470;2023-05-10T00:22:31;96513.74;;;13.49;35.90
47080;BME280;33067;49.296;14.470;2023-05-10T00:24:57;96514.49;;;13.49;36.24
47080;BME280;33067;49.296;14.470;2023-05-10T00:27:22;96510.61;;;13.44;36.27
47080;BME280;33067;49.296;14.470;2023-05-10T00:29:47;96508.67;;;13.28;36.65
47080;BME280;33067;49.296;14.470;2023-05-10T00:32:12;96504.33;;;12.79;37.36
47080;BME280;33067;49.296;14.470;2023-05-10T00:34:38;96501.43;;;12.09;38.76
47080;BME280;33067;49.296;14.470;2023-05-10T00:37:03;96500.31;;;12.82;38.06
47080;BME280;33067;49.296;14.470;2023-05-10T00:39:28;96496.59;;;12.66;38.33
47080;BME280;33067;49.296;14.470;2023-05-10T00:41:53;96488.68;;;11.89;39.01
47080;BME280;33067;49.296;14.470;2023-05-10T00:44:19;96482.27;;;11.96;39.19
47080;BME280;33067;49.296;14.470;2023-05-10T00:46:44;96477.71;;;11.86;39.67
47080;BME280;33067;49.296;14.470;2023-05-10T00:49:09;96476.59;;;11.36;40.29
47080;BME280;33067;49.296;14.470;2023-05-10T00:51:35;96480.84;;;11.72;40.22
47080;BME280;33067;49.296;14.470;2023-05-10T00:54:00;96478.02;;;11.33;40.84
47080;BME280;33067;49.296;14.470;2023-05-10T00:56:26;96477.13;;;11.52;40.51
47080;BME280;33067;49.296;14.470;2023-05-10T00:58:51;96477.96;;;11.13;40.70
47080;BME280;33067;49.296;14.470;2023-05-10T01:01:16;96480.09;;;11.47;40.46
47080;BME280;33067;49.296;14.470;2023-05-10T01:03:42;96474.89;;;11.42;40.55
47080;BME280;33067;49.296;14.470;2023-05-10T01:06:07;96494.09;;;10.62;41.51
47080;BME280;33067;49.296;14.470;2023-05-10T01:08:32;96485.24;;;10.98;41.01
47080;BME280;33067;49.296;14.470;2023-05-10T01:10:58;96479.53;;;11.55;40.23
47080;BME280;33067;49.296;14.470;2023-05-10T01:13:30;96479.96;;;11.26;40.61
47080;BME280;33067;49.296;14.470;2023-05-10T01:15:48;96484.31;;;10.91;40.66
47080;BME280;33067;49.296;14.470;2023-05-10T01:18:14;96485.47;;;11.15;40.53
47080;BME280;33067;49.296;14.470;2023-05-10T01:20:43;96485.82;;;11.26;40.57
47080;BME280;33067;49.296;14.470;2023-05-10T01:23:19;96484.39;;;10.96;40.91
47080;BME280;33067;49.296;14.470;2023-05-10T01:25:46;96476.87;;;11.43;40.27
47080;BME280;33067;49.296;14.470;2023-05-10T01:28:16;96481.34;;;11.63;40.00
47080;BME280;33067;49.296;14.470;2023-05-10T01:32:52;96479.26;;;12.26;38.86
47080;BME280;33067;49.296;14.470;2023-05-10T01:35:18;96480.05;;;12.27;38.82
47080;BME280;33067;49.296;14.470;2023-05-10T01:37:41;96482.61;;;12.41;38.36
47080;BME280;33067;49.296;14.470;2023-05-10T01:40:09;96484.92;;;13.12;37.70
47080;BME280;33067;49.296;14.470;2023-05-10T01:42:38;96482.46;;;13.26;37.18
47080;BME280;33067;49.296;14.470;2023-05-10T01:45:00;96485.63;;;13.06;37.48
47080;BME280;33067;49.296;14.470;2023-05-10T01:47:25;96486.86;;;12.52;38.08
47080;BME280;33067;49.296;14.470;2023-05-10T01:49:50;96487.56;;;12.75;38.15
47080;BME280;33067;49.296;14.470;2023-05-10T01:52:12;96484.13;;;12.19;38.12
47080;BME280;33067;49.296;14.470;2023-05-10T01:54:35;96488.52;;;12.66;38.05
47080;BME280;33067;49.296;14.470;2023-05-10T01:57:05;96484.24;;;12.14;38.51
47080;BME280;33067;49.296;14.470;2023-05-10T01:59:30;96485.47;;;12.72;38.13
47080;BME280;33067;49.296;14.470;2023-05-10T02:01:51;96487.87;;;12.57;38.46
47080;BME280;33067;49.296;14.470;2023-05-10T02:04:17;96501.04;;;11.41;39.78
47080;BME280;33067;49.296;14.470;2023-05-10T02:06:42;96493.12;;;11.55;39.44
47080;BME280;33067;49.296;14.470;2023-05-10T02:09:07;96489.47;;;12.09;38.78
47080;BME280;33067;49.296;14.470;2023-05-10T02:13:02;96482.31;;;12.39;37.31
47080;BME280;33067;49.296;14.470;2023-05-10T02:15:27;96481.24;;;13.23;36.85
47080;BME280;33067;49.296;14.470;2023-05-10T02:17:54;96485.12;;;12.28;37.92
47080;BME280;33067;49.296;14.470;2023-05-10T02:20:19;96485.03;;;12.79;37.93
47080;BME280;33067;49.296;14.470;2023-05-10T02:22:45;96487.82;;;12.10;38.28
47080;BME280;33067;49.296;14.470;2023-05-10T02:25:09;96490.86;;;12.30;38.20
47080;BME280;33067;49.296;14.470;2023-05-10T02:27:33;96492.08;;;12.53;37.74
47080;BME280;33067;49.296;14.470;2023-05-10T02:29:59;96488.00;;;12.62;38.16
47080;BME280;33067;49.296;14.470;2023-05-10T02:32:26;96486.90;;;12.79;37.90
47080;BME280;33067;49.296;14.470;2023-05-10T02:34:50;96482.13;;;12.22;38.48
47080;BME280;33067;49.296;14.470;2023-05-10T02:37:16;96481.30;;;12.22;38.40
47080;BME280;33067;49.296;14.470;2023-05-10T02:39:41;96472.43;;;12.38;38.42
47080;BME280;33067;49.296;14.470;2023-05-10T02:42:07;96466.07;;;12.33;38.27
47080;BME280;33067;49.296;14.470;2023-05-10T02:44:32;96463.07;;;11.43;40.24
47080;BME280;33067;49.296;14.470;2023-05-10T02:46:57;96456.64;;;10.95;41.03
47080;BME280;33067;49.296;14.470;2023-05-10T02:49:23;96460.37;;;10.75;41.77
47080;BME280;33067;49.296;14.470;2023-05-10T02:51:51;96466.65;;;11.29;41.06
47080;BME280;33067;49.296;14.470;2023-05-10T02:54:18;96466.67;;;11.58;40.71
47080;BME280;33067;49.296;14.470;2023-05-10T02:56:45;96476.64;;;11.09;40.51
47080;BME280;33067;49.296;14.470;2023-05-10T02:59:04;96473.97;;;11.73;39.98
47080;BME280;33067;49.296;14.470;2023-05-10T03:01:29;96469.68;;;11.50;39.96
47080;BME280;33067;49.296;14.470;2023-05-10T03:03:53;96477.93;;;11.74;39.65
47080;BME280;33067;49.296;14.470;2023-05-10T03:06:19;96479.82;;;11.85;39.49
47080;BME280;33067;49.296;14.470;2023-05-10T03:08:44;96482.55;;;12.27;39.03
47080;BME280;33067;49.296;14.470;2023-05-10T03:11:28;96482.96;;;12.36;38.64
47080;BME280;33067;49.296;14.470;2023-05-10T03:13:52;96482.43;;;12.56;38.62
47080;BME280;33067;49.296;14.470;2023-05-10T03:16:06;96480.71;;;12.45;38.77
47080;BME280;33067;49.296;14.470;2023-05-10T03:18:31;96483.67;;;12.39;38.90
47080;BME280;33067;49.296;14.470;2023-05-10T03:20:57;96484.63;;;12.27;38.28
47080;BME280;33067;49.296;14.470;2023-05-10T03:23:22;96481.33;;;12.46;38.32
47080;BME280;33067;49.296;14.470;2023-05-10T03:25:44;96483.38;;;12.50;38.59
47080;BME280;33067;49.296;14.470;2023-05-10T03:28:07;96481.88;;;12.10;39.45
47080;BME280;33067;49.296;14.470;2023-05-10T03:30:33;96484.60;;;12.50;39.17
47080;BME280;33067;49.296;14.470;2023-05-10T03:32:57;96483.85;;;12.49;38.90
47080;BME280;33067;49.296;14.470;2023-05-10T03:35:23;96482.35;;;12.88;38.84
47080;BME280;33067;49.296;14.470;2023-05-10T03:37:48;96476.28;;;13.08;38.99
47080;BME280;33067;49.296;14.470;2023-05-10T03:40:13;96475.24;;;12.30;40.14
47080;BME280;33067;49.296;14.470;2023-05-10T03:42:38;96482.10;;;12.02;39.81
47080;BME280;33067;49.296;14.470;2023-05-10T03:45:05;96483.65;;;12.32;39.90
47080;BME280;33067;49.296;14.470;2023-05-10T03:47:29;96482.95;;;12.54;39.05
47080;BME280;33067;49.296;14.470;2023-05-10T03:49:54;96486.80;;;12.38;38.69
47080;BME280;33067;49.296;14.470;2023-05-10T03:52:20;96483.86;;;12.13;38.54
47080;BME280;33067;49.296;14.470;2023-05-10T03:54:45;96480.72;;;12.60;38.51
47080;BME280;33067;49.296;14.470;2023-05-10T03:57:11;96482.27;;;12.29;38.37
47080;BME280;33067;49.296;14.470;2023-05-10T03:59:36;96483.69;;;12.70;38.20
47080;BME280;33067;49.296;14.470;2023-05-10T04:02:02;96478.50;;;12.78;37.98
47080;BME280;33067;49.296;14.470;2023-05-10T04:04:26;96479.38;;;12.87;37.85
47080;BME280;33067;49.296;14.470;2023-05-10T04:06:52;96478.04;;;13.46;37.37
47080;BME280;33067;49.296;14.470;2023-05-10T04:09:18;96481.43;;;12.98;37.44
47080;BME280;33067;49.296;14.470;2023-05-10T04:11:43;96488.14;;;13.03;37.52
47080;BME280;33067;49.296;14.470;2023-05-10T04:14:08;96486.31;;;13.40;36.96
47080;BME280;33067;49.296;14.470;2023-05-10T04:16:34;96483.08;;;13.62;36.69
47080;BME280;33067;49.296;14.470;2023-05-10T04:18:59;96485.97;;;13.50;36.47
47080;BME280;33067;49.296;14.470;2023-05-10T04:21:25;96490.59;;;13.91;36.02
47080;BME280;33067;49.296;14.470;2023-05-10T04:23:50;96494.71;;;14.01;35.99
47080;BME280;33067;49.296;14.470;2023-05-10T04:26:15;96491.51;;;13.76;36.25
47080;BME280;33067;49.296;14.470;2023-05-10T04:28:40;96490.25;;;14.32;35.67
47080;BME280;33067;49.296;14.470;2023-05-10T04:31:08;96495.14;;;14.81;34.99
47080;BME280;33067;49.296;14.470;2023-05-10T04:33:32;96492.21;;;14.92;35.55
47080;BME280;33067;49.296;14.470;2023-05-10T04:35:57;96488.87;;;15.08;34.81
47080;BME280;33067;49.296;14.470;2023-05-10T04:38:23;96489.00;;;14.81;34.64
47080;BME280;33067;49.296;14.470;2023-05-10T04:40:48;96491.39;;;14.73;35.31
47080;BME280;33067;49.296;14.470;2023-05-10T04:43:13;96490.35;;;14.80;35.33
47080;BME280;33067;49.296;14.470;2023-05-10T04:45:38;96494.05;;;14.55;35.69
47080;BME280;33067;49.296;14.470;2023-05-10T04:48:04;96488.88;;;14.26;36.65
47080;BME280;33067;49.296;14.470;2023-05-10T04:50:29;96491.14;;;13.66;36.86
47080;BME280;33067;49.296;14.470;2023-05-10T04:52:55;96494.52;;;13.29;37.92
47080;BME280;33067;49.296;14.470;2023-05-10T04:55:20;96490.64;;;13.05;38.62
47080;BME280;33067;49.296;14.470;2023-05-10T04:57:45;96490.38;;;13.48;37.44
47080;BME280;33067;49.296;14.470;2023-05-10T05:00:11;96491.70;;;14.15;37.10
47080;BME280;33067;49.296;14.470;2023-05-10T05:02:36;96496.93;;;13.74;37.34
47080;BME280;33067;49.296;14.470;2023-05-10T05:05:02;96498.21;;;14.52;36.41
47080;BME280;33067;49.296;14.470;2023-05-10T05:07:27;96490.89;;;14.03;36.48
47080;BME280;33067;49.296;14.470;2023-05-10T05:09:52;96494.84;;;14.55;36.30
47080;BME280;33067;49.296;14.470;2023-05-10T05:12:17;96489.90;;;13.90;37.60
47080;BME280;33067;49.296;14.470;2023-05-10T05:14:42;96490.50;;;13.45;37.61
47080;BME280;33067;49.296;14.470;2023-05-10T05:17:08;96495.41;;;14.34;36.77
47080;BME280;33067;49.296;14.470;2023-05-10T05:19:33;96498.23;;;14.62;36.61
47080;BME280;33067;49.296;14.470;2023-05-10T05:21:58;96499.97;;;14.81;36.52
47080;BME280;33067;49.296;14.470;2023-05-10T05:24:23;96497.53;;;15.19;35.72
47080;BME280;33067;49.296;14.470;2023-05-10T05:26:49;96502.38;;;15.01;36.30
47080;BME280;33067;49.296;14.470;2023-05-10T05:29:15;96495.34;;;14.82;36.57
47080;BME280;33067;49.296;14.470;2023-05-10T05:31:40;96491.72;;;13.99;37.92
47080;BME280;33067;49.296;14.470;2023-05-10T05:34:05;96489.08;;;14.10;37.51
47080;BME280;33067;49.296;14.470;2023-05-10T05:36:35;96497.40;;;13.97;37.51
47080;BME280;33067;49.296;14.470;2023-05-10T05:38:56;96493.92;;;13.46;39.66
47080;BME280;33067;49.296;14.470;2023-05-10T05:41:21;96497.90;;;14.06;38.72
47080;BME280;33067;49.296;14.470;2023-05-10T05:43:47;96490.83;;;13.34;39.08
47080;BME280;33067;49.296;14.470;2023-05-10T05:46:13;96489.36;;;13.17;39.82
47080;BME280;33067;49.296;14.470;2023-05-10T05:48:37;96492.32;;;11.88;40.17
47080;BME280;33067;49.296;14.470;2023-05-10T05:51:02;96491.74;;;13.69;39.28
47080;BME280;33067;49.296;14.470;2023-05-10T05:53:28;96490.28;;;14.14;38.87
47080;BME280;33067;49.296;14.470;2023-05-10T05:55:54;96491.41;;;13.92;38.38
47080;BME280;33067;49.296;14.470;2023-05-10T05:58:18;96493.88;;;14.36;38.24
47080;BME280;33067;49.296;14.470;2023-05-10T06:00:44;96496.14;;;13.55;39.50
47080;BME280;33067;49.296;14.470;2023-05-10T06:03:09;96497.35;;;13.17;39.95
47080;BME280;33067;49.296;14.470;2023-05-10T06:05:34;96506.25;;;13.13;40.49
47080;BME280;33067;49.296;14.470;2023-05-10T06:08:01;96494.29;;;13.95;39.09
47080;BME280;33067;49.296;14.470;2023-05-10T06:10:25;96503.78;;;14.52;38.64
47080;BME280;33067;49.296;14.470;2023-05-10T06:12:50;96494.64;;;13.65;39.10
47080;BME280;33067;49.296;14.470;2023-05-10T06:15:15;96498.54;;;15.21;36.93
47080;BME280;33067;49.296;14.470;2023-05-10T06:17:40;96494.28;;;14.93;36.71
47080;BME280;33067;49.296;14.470;2023-05-10T06:20:07;96501.65;;;14.78;37.44
47080;BME280;33067;49.296;14.470;2023-05-10T06:22:32;96498.16;;;14.43;38.24
47080;BME280;33067;49.296;14.470;2023-05-10T06:24:56;96501.67;;;14.80;37.15
47080;BME280;33067;49.296;14.470;2023-05-10T06:27:21;96501.42;;;15.15;36.76
47080;BME280;33067;49.296;14.470;2023-05-10T06:29:47;96504.07;;;14.48;37.83
47080;BME280;33067;49.296;14.470;2023-05-10T06:32:12;96499.12;;;14.74;37.57
47080;BME280;33067;49.296;14.470;2023-05-10T06:34:37;96502.21;;;14.57;37.36
47080;BME280;33067;49.296;14.470;2023-05-10T06:37:02;96508.41;;;15.38;36.57
47080;BME280;33067;49.296;14.470;2023-05-10T06:39:27;96508.16;;;15.07;36.59
47080;BME280;33067;49.296;14.470;2023-05-10T06:41:53;96503.02;;;14.73;36.85
47080;BME280;33067;49.296;14.470;2023-05-10T06:44:18;96499.44;;;15.76;35.96
47080;BME280;33067;49.296;14.470;2023-05-10T06:46:43;96502.55;;;15.25;36.02
47080;BME280;33067;49.296;14.470;2023-05-10T06:49:08;96509.71;;;15.62;36.06
47080;BME280;33067;49.296;14.470;2023-05-10T06:51:34;96504.68;;;14.08;37.56
47080;BME280;33067;49.296;14.470;2023-05-10T06:53:59;96508.37;;;14.36;37.88
47080;BME280;33067;49.296;14.470;2023-05-10T06:56:24;96499.19;;;14.46;37.52
47080;BME280;33067;49.296;14.470;2023-05-10T06:58:50;96499.48;;;14.88;37.12
47080;BME280;33067;49.296;14.470;2023-05-10T07:01:15;96503.54;;;15.11;37.44
47080;BME280;33067;49.296;14.470;2023-05-10T07:03:42;96503.52;;;14.22;38.51
47080;BME280;33067;49.296;14.470;2023-05-10T07:06:06;96500.37;;;14.41;37.82
47080;BME280;33067;49.296;14.470;2023-05-10T07:08:32;96502.62;;;14.69;38.20
47080;BME280;33067;49.296;14.470;2023-05-10T07:11:01;96510.42;;;15.64;37.47
47080;BME280;33067;49.296;14.470;2023-05-10T07:13:22;96509.06;;;14.48;37.99
47080;BME280;33067;49.296;14.470;2023-05-10T07:15:48;96509.78;;;14.37;38.21
47080;BME280;33067;49.296;14.470;2023-05-10T07:18:13;96510.00;;;15.16;37.64
47080;BME280;33067;49.296;14.470;2023-05-10T07:20:39;96502.76;;;14.55;37.82
47080;BME280;33067;49.296;14.470;2023-05-10T07:23:04;96504.20;;;14.69;37.75
47080;BME280;33067;49.296;14.470;2023-05-10T07:25:29;96506.32;;;14.56;38.02
47080;BME280;33067;49.296;14.470;2023-05-10T07:27:54;96504.77;;;14.72;38.12
47080;BME280;33067;49.296;14.470;2023-05-10T07:30:21;96510.39;;;15.43;36.84
47080;BME280;33067;49.296;14.470;2023-05-10T07:32:45;96507.71;;;14.94;37.74
47080;BME280;33067;49.296;14.470;2023-05-10T07:35:10;96508.23;;;15.22;37.49
47080;BME280;33067;49.296;14.470;2023-05-10T07:37:35;96509.16;;;15.70;36.61
47080;BME280;33067;49.296;14.470;2023-05-10T07:40:01;96505.80;;;16.53;34.98
47080;BME280;33067;49.296;14.470;2023-05-10T07:42:26;96505.36;;;16.15;34.92
47080;BME280;33067;49.296;14.470;2023-05-10T07:44:51;96512.24;;;15.82;36.10
47080;BME280;33067;49.296;14.470;2023-05-10T07:47:16;96499.64;;;16.29;35.53
47080;BME280;33067;49.296;14.470;2023-05-10T07:49:41;96506.56;;;16.02;35.36
47080;BME280;33067;49.296;14.470;2023-05-10T07:52:07;96512.74;;;16.02;35.63
47080;BME280;33067;49.296;14.470;2023-05-10T07:54:32;96509.22;;;15.59;36.24
47080;BME280;33067;49.296;14.470;2023-05-10T07:56:58;96511.85;;;16.08;35.43
47080;BME280;33067;49.296;14.470;2023-05-10T07:59:23;96511.66;;;15.88;35.28
47080;BME280;33067;49.296;14.470;2023-05-10T08:01:49;96509.86;;;16.16;35.90
47080;BME280;33067;49.296;14.470;2023-05-10T08:04:14;96505.00;;;16.02;36.00
47080;BME280;33067;49.296;14.470;2023-05-10T08:06:40;96502.90;;;16.26;35.69
47080;BME280;33067;49.296;14.470;2023-05-10T08:09:05;96499.35;;;16.56;35.57
47080;BME280;33067;49.296;14.470;2023-05-10T08:11:30;96497.05;;;16.60;34.30
47080;BME280;33067;49.296;14.470;2023-05-10T08:13:55;96495.75;;;16.53;35.12
47080;BME280;33067;49.296;14.470;2023-05-10T08:16:20;96494.98;;;17.03;34.33
47080;BME280;33067;49.296;14.470;2023-05-10T08:18:46;96499.23;;;17.44;33.51
47080;BME280;33067;49.296;14.470;2023-05-10T08:21:10;96497.94;;;17.44;32.29
47080;BME280;33067;49.296;14.470;2023-05-10T08:23:35;96504.50;;;17.41;32.92
47080;BME280;33067;49.296;14.470;2023-05-10T08:26:01;96503.84;;;16.99;34.28
47080;BME280;33067;49.296;14.470;2023-05-10T08:28:28;96510.32;;;16.76;34.06
47080;BME280;33067;49.296;14.470;2023-05-10T08:30:51;96513.07;;;16.88;33.80
47080;BME280;33067;49.296;14.470;2023-05-10T08:33:17;96515.30;;;17.55;33.42
47080;BME280;33067;49.296;14.470;2023-05-10T08:35:42;96513.29;;;17.50;32.84
47080;BME280;33067;49.296;14.470;2023-05-10T08:38:07;96515.94;;;17.79;32.72
47080;BME280;33067;49.296;14.470;2023-05-10T08:40:33;96515.65;;;16.59;34.21
47080;BME280;33067;49.296;14.470;2023-05-10T08:43:04;96515.04;;;16.87;33.66
47080;BME280;33067;49.296;14.470;2023-05-10T08:45:24;96511.13;;;17.29;33.63
47080;BME280;33067;49.296;14.470;2023-05-10T08:47:49;96508.68;;;17.90;32.69
47080;BME280;33067;49.296;14.470;2023-05-10T08:50:15;96514.06;;;17.79;32.46
47080;BME280;33067;49.296;14.470;2023-05-10T08:52:40;96514.46;;;18.01;32.13
47080;BME280;33067;49.296;14.470;2023-05-10T08:55:04;96507.98;;;18.71;31.58
47080;BME280;33067;49.296;14.470;2023-05-10T08:57:29;96509.12;;;19.07;32.01
47080;BME280;33067;49.296;14.470;2023-05-10T08:59:54;96518.44;;;17.87;32.01
47080;BME280;33067;49.296;14.470;2023-05-10T09:02:20;96513.55;;;17.63;33.02
47080;BME280;33067;49.296;14.470;2023-05-10T09:04:44;96515.89;;;17.56;33.73
47080;BME280;33067;49.296;14.470;2023-05-10T09:07:10;96509.59;;;17.44;33.07
47080;BME280;33067;49.296;14.470;2023-05-10T09:09:35;96511.34;;;17.79;33.06
47080;BME280;33067;49.296;14.470;2023-05-10T09:12:00;96518.74;;;17.65;32.09
47080;BME280;33067;49.296;14.470;2023-05-10T09:14:26;96513.39;;;17.44;33.38
47080;BME280;33067;49.296;14.470;2023-05-10T09:16:51;96511.86;;;18.03;32.12
47080;BME280;33067;49.296;14.470;2023-05-10T09:19:16;96504.96;;;18.29;32.08
47080;BME280;33067;49.296;14.470;2023-05-10T09:21:43;96508.56;;;18.02;32.85
47080;BME280;33067;49.296;14.470;2023-05-10T09:24:08;96505.95;;;18.64;31.92
47080;BME280;33067;49.296;14.470;2023-05-10T09:26:32;96513.16;;;18.38;31.76
47080;BME280;33067;49.296;14.470;2023-05-10T09:28:58;96511.25;;;17.85;32.24
47080;BME280;33067;49.296;14.470;2023-05-10T09:31:22;96511.95;;;17.92;32.51
47080;BME280;33067;49.296;14.470;2023-05-10T09:33:48;96517.85;;;18.29;32.37
47080;BME280;33067;49.296;14.470;2023-05-10T09:36:13;96509.68;;;17.99;32.36
47080;BME280;33067;49.296;14.470;2023-05-10T09:38:45;96508.67;;;18.53;31.83
47080;BME280;33067;49.296;14.470;2023-05-10T09:41:04;96508.67;;;18.73;31.13
47080;BME280;33067;49.296;14.470;2023-05-10T09:43:27;96497.77;;;18.90;31.45
47080;BME280;33067;49.296;14.470;2023-05-10T09:45:52;96504.25;;;18.64;31.75
47080;BME280;33067;49.296;14.470;2023-05-10T09:48:17;96500.41;;;19.29;30.88
47080;BME280;33067;49.296;14.470;2023-05-10T09:50:42;96498.72;;;19.54;29.66
47080;BME280;33067;49.296;14.470;2023-05-10T09:53:08;96497.11;;;19.64;30.26
47080;BME280;33067;49.296;14.470;2023-05-10T09:55:40;96495.99;;;20.30;30.27
47080;BME280;33067;49.296;14.470;2023-05-10T09:58:00;96496.79;;;19.03;31.28
47080;BME280;33067;49.296;14.470;2023-05-10T10:00:23;96489.67;;;19.17;30.68
47080;BME280;33067;49.296;14.470;2023-05-10T10:02:54;96499.60;;;19.51;30.28
47080;BME280;33067;49.296;14.470;2023-05-10T10:05:13;96491.86;;;19.09;30.89
47080;BME280;33067;49.296;14.470;2023-05-10T10:07:38;96495.58;;;19.20;31.04
47080;BME280;33067;49.296;14.470;2023-05-10T10:10:04;96491.67;;;18.49;31.95
47080;BME280;33067;49.296;14.470;2023-05-10T10:12:28;96491.04;;;18.72;31.82
47080;BME280;33067;49.296;14.470;2023-05-10T10:14:53;96490.42;;;18.97;31.52
47080;BME280;33067;49.296;14.470;2023-05-10T10:17:20;96485.58;;;19.92;30.54
47080;BME280;33067;49.296;14.470;2023-05-10T10:19:45;96488.69;;;19.32;30.26
47080;BME280;33067;49.296;14.470;2023-05-10T10:22:10;96484.22;;;20.36;30.14
47080;BME280;33067;49.296;14.470;2023-05-10T10:24:35;96476.41;;;20.54;29.45
47080;BME280;33067;49.296;14.470;2023-05-10T10:27:11;96472.86;;;20.64;30.07
47080;BME280;33067;49.296;14.470;2023-05-10T10:29:31;96473.89;;;20.78;29.66
47080;BME280;33067;49.296;14.470;2023-05-10T10:31:57;96486.89;;;20.19;29.88
47080;BME280;33067;49.296;14.470;2023-05-10T10:34:25;96488.98;;;20.05;30.86
47080;BME280;33067;49.296;14.470;2023-05-10T10:36:42;96483.65;;;19.73;30.47
47080;BME280;33067;49.296;14.470;2023-05-10T10:39:09;96478.38;;;20.27;30.79
47080;BME280;33067;49.296;14.470;2023-05-10T10:41:33;96475.72;;;20.63;29.97
47080;BME280;33067;49.296;14.470;2023-05-10T10:46:21;96478.20;;;20.11;30.58
47080;BME280;33067;49.296;14.470;2023-05-10T10:48:48;96477.75;;;20.03;30.13
47080;BME280;33067;49.296;14.470;2023-05-10T10:51:13;96472.93;;;20.56;29.64
47080;BME280;33067;49.296;14.470;2023-05-10T10:53:38;96472.24;;;20.81;29.53
47080;BME280;33067;49.296;14.470;2023-05-10T10:56:07;96471.51;;;21.14;28.83
47080;BME280;33067;49.296;14.470;2023-05-10T10:58:30;96473.10;;;21.35;29.31
47080;BME280;33067;49.296;14.470;2023-05-10T11:03:17;96465.20;;;20.65;29.73
47080;BME280;33067;49.296;14.470;2023-05-10T11:05:43;96464.84;;;20.52;30.94
47080;BME280;33067;49.296;14.470;2023-05-10T11:08:11;96459.70;;;21.40;28.96
47080;BME280;33067;49.296;14.470;2023-05-10T11:10:33;96461.47;;;21.80;28.18
47080;BME280;33067;49.296;14.470;2023-05-10T11:13:00;96462.95;;;21.52;28.90
47080;BME280;33067;49.296;14.470;2023-05-10T11:15:28;96462.57;;;21.27;29.65
47080;BME280;33067;49.296;14.470;2023-05-10T11:17:48;96462.64;;;21.54;28.97
47080;BME280;33067;49.296;14.470;2023-05-10T11:20:14;96457.68;;;22.05;28.57
47080;BME280;33067;49.296;14.470;2023-05-10T11:22:49;96458.25;;;22.42;28.29
47080;BME280;33067;49.296;14.470;2023-05-10T11:25:07;96458.94;;;22.18;27.92
47080;BME280;33067;49.296;14.470;2023-05-10T11:27:30;96460.95;;;22.17;27.55
47080;BME280;33067;49.296;14.470;2023-05-10T11:29:55;96461.87;;;21.52;28.01
47080;BME280;33067;49.296;14.470;2023-05-10T11:32:21;96472.08;;;21.31;28.87
47080;BME280;33067;49.296;14.470;2023-05-10T11:34:47;96467.64;;;20.74;29.68
47080;BME280;33067;49.296;14.470;2023-05-10T11:37:10;96464.75;;;20.66;30.54
47080;BME280;33067;49.296;14.470;2023-05-10T11:39:36;96468.21;;;20.79;30.13
47080;BME280;33067;49.296;14.470;2023-05-10T11:42:01;96470.82;;;20.88;30.57
47080;BME280;33067;49.296;14.470;2023-05-10T11:44:31;96477.90;;;20.30;30.71
47080;BME280;33067;49.296;14.470;2023-05-10T11:46:52;96475.23;;;19.66;32.45
47080;BME280;33067;49.296;14.470;2023-05-10T11:49:17;96476.63;;;19.47;32.27
47080;BME280;33067;49.296;14.470;2023-05-10T11:51:42;96471.62;;;19.74;32.06
47080;BME280;33067;49.296;14.470;2023-05-10T11:54:10;96473.05;;;20.31;31.29
47080;BME280;33067;49.296;14.470;2023-05-10T11:56:33;96475.68;;;20.20;31.01
47080;BME280;33067;49.296;14.470;2023-05-10T11:58:59;96472.93;;;20.48;31.28
47080;BME280;33067;49.296;14.470;2023-05-10T12:01:24;96477.22;;;20.38;31.40
47080;BME280;33067;49.296;14.470;2023-05-10T12:03:49;96479.52;;;20.29;31.58
47080;BME280;33067;49.296;14.470;2023-05-10T12:06:14;96478.84;;;20.18;31.60
47080;BME280;33067;49.296;14.470;2023-05-10T12:08:44;96475.92;;;20.43;31.31
47080;BME280;33067;49.296;14.470;2023-05-10T12:11:06;96470.97;;;20.88;30.36
47080;BME280;33067;49.296;14.470;2023-05-10T12:13:29;96471.16;;;20.79;30.68
47080;BME280;33067;49.296;14.470;2023-05-10T12:15:58;96470.54;;;20.89;30.38
47080;BME280;33067;49.296;14.470;2023-05-10T12:18:24;96476.22;;;20.87;30.73
47080;BME280;33067;49.296;14.470;2023-05-10T12:20:44;96484.20;;;20.69;31.25
47080;BME280;33067;49.296;14.470;2023-05-10T12:23:11;96485.12;;;19.83;32.15
47080;BME280;33067;49.296;14.470;2023-05-10T12:25:37;96483.41;;;20.28;32.38
47080;BME280;33067;49.296;14.470;2023-05-10T12:28:04;96483.27;;;19.72;32.16
47080;BME280;33067;49.296;14.470;2023-05-10T12:30:27;96484.78;;;20.13;32.23
47080;BME280;33067;49.296;14.470;2023-05-10T12:32:51;96482.58;;;19.68;32.16
47080;BME280;33067;49.296;14.470;2023-05-10T12:35:16;96483.65;;;20.21;32.24
47080;BME280;33067;49.296;14.470;2023-05-10T12:37:41;96484.62;;;19.96;31.84
47080;BME280;33067;49.296;14.470;2023-05-10T12:40:07;96482.58;;;19.81;31.94
47080;BME280;33067;49.296;14.470;2023-05-10T12:42:31;96482.20;;;20.44;31.86
47080;BME280;33067;49.296;14.470;2023-05-10T12:44:56;96488.52;;;19.94;31.93
47080;BME280;33067;49.296;14.470;2023-05-10T12:47:21;96488.34;;;20.42;31.83